createdAt,value
2019-04-21T00:01:57.652Z,16.93
2019-04-21T00:04:38.048Z,14.83
2019-04-21T00:07:14.495Z,21.20
2019-04-21T00:09:50.701Z,17.90
2019-04-21T00:12:13.796Z,20.60
2019-04-21T00:14:31.630Z,18.13
2019-04-21T00:16:57.485Z,24.20
2019-04-21T00:19:28.182Z,18.20
2019-04-21T00:22:04.919Z,18.90
2019-04-21T00:24:33.716Z,22.43
2019-04-21T00:27:05.305Z,18.90
2019-04-21T00:29:45.427Z,24.43
2019-04-21T00:32:03.001Z,22.13
2019-04-21T00:34:17.638Z,18.97
2019-04-21T00:36:55.969Z,16.43
2019-04-21T00:39:43.877Z,21.40
2019-04-21T00:42:08.625Z,19.23
2019-04-21T00:44:25.686Z,17.67
2019-04-21T00:46:56.400Z,20.60
2019-04-21T00:49:31.129Z,19.73
2019-04-21T00:52:38.930Z,23.43
2019-04-21T00:55:12.269Z,23.37
2019-04-21T00:57:33.791Z,22.67
2019-04-21T01:00:00.802Z,18.63
2019-04-21T01:02:27.989Z,21.10
2019-04-21T01:05:02.037Z,23.00
2019-04-21T01:07:28.176Z,20.33
2019-04-21T01:09:48.876Z,20.87
2019-04-21T01:12:26.823Z,17.53
2019-04-21T01:14:55.436Z,25.63
2019-04-21T01:17:22.853Z,19.50
2019-04-21T01:19:47.731Z,22.37
2019-04-21T01:21:58.076Z,24.87
2019-04-21T01:24:34.502Z,27.00
2019-04-21T01:27:10.061Z,19.43
2019-04-21T01:29:45.838Z,25.70
2019-04-21T01:32:24.179Z,20.60
2019-04-21T01:34:49.731Z,23.67
2019-04-21T01:37:10.898Z,21.43
2019-04-21T01:39:51.556Z,25.17
2019-04-21T01:42:15.739Z,24.90
2019-04-21T01:44:44.994Z,21.77
2019-04-21T01:47:08.625Z,27.23
2019-04-21T01:49:29.643Z,28.67
2019-04-21T01:52:17.608Z,22.83
2019-04-21T01:55:00.232Z,23.57
2019-04-21T01:57:33.394Z,21.80
2019-04-21T01:59:54.912Z,24.53
2019-04-21T02:02:29.377Z,23.07
2019-04-21T02:05:05.560Z,23.90
2019-04-21T02:07:27.044Z,26.00
2019-04-21T02:09:59.966Z,24.43
2019-04-21T02:12:26.563Z,24.50
2019-04-21T02:15:09.501Z,25.37
2019-04-21T02:17:25.099Z,25.23
2019-04-21T02:19:50.363Z,24.50
2019-04-21T02:22:27.178Z,22.90
2019-04-21T02:24:58.021Z,27.73
2019-04-21T02:27:26.598Z,27.50
2019-04-21T02:29:54.962Z,24.73
2019-04-21T02:35:03.955Z,25.23
2019-04-21T02:37:36.986Z,29.27
2019-04-21T02:42:27.821Z,21.03
2019-04-21T02:44:51.806Z,28.50
2019-04-21T02:47:37.043Z,22.47
2019-04-21T02:49:59.556Z,23.43
2019-04-21T02:54:53.435Z,24.80
2019-04-21T02:57:19.023Z,22.10
2019-04-21T03:00:00.025Z,24.60
2019-04-21T03:05:28.267Z,25.33
2019-04-21T03:07:55.324Z,26.07
2019-04-21T03:10:26.536Z,20.00
2019-04-21T03:12:45.995Z,24.47
2019-04-21T03:15:21.303Z,25.50
2019-04-21T03:18:08.257Z,23.47
2019-04-21T03:20:25.526Z,27.57
2019-04-21T03:23:07.871Z,25.27
2019-04-21T03:25:25.266Z,23.00
2019-04-21T03:28:00.796Z,22.70
2019-04-21T03:37:39.861Z,19.63
2019-04-21T03:40:18.693Z,25.63
2019-04-21T03:42:38.527Z,22.67
2019-04-21T03:45:19.954Z,22.47
2019-04-21T03:47:36.052Z,22.80
2019-04-21T03:52:42.548Z,21.67
2019-04-21T04:03:35.136Z,22.97
2019-04-21T04:06:03.741Z,27.63
2019-04-21T04:08:43.606Z,22.80
2019-04-21T04:11:05.083Z,22.40
2019-04-21T04:13:29.572Z,26.10
2019-04-21T04:15:56.443Z,27.40
2019-04-21T04:18:39.221Z,23.67
2019-04-21T04:20:53.427Z,30.27
2019-04-21T04:23:20.139Z,23.47
2019-04-21T04:25:51.569Z,21.37
2019-04-21T04:28:19.108Z,23.60
2019-04-21T04:30:52.786Z,23.50
2019-04-21T04:33:21.264Z,19.70
2019-04-21T04:38:26.424Z,24.23
2019-04-21T04:40:55.955Z,22.53
2019-04-21T04:45:56.684Z,23.30
2019-04-21T04:48:20.220Z,24.43
2019-04-21T04:53:20.337Z,22.33
2019-04-21T04:55:48.164Z,26.27
2019-04-21T04:58:44.322Z,25.60
2019-04-21T05:00:43.405Z,22.93
2019-04-21T05:03:19.181Z,22.87
2019-04-21T05:09:03.355Z,24.10
2019-04-21T05:11:30.904Z,21.57
2019-04-21T05:13:54.959Z,24.70
2019-04-21T05:16:34.631Z,25.50
2019-04-21T05:19:00.726Z,21.70
2019-04-21T05:21:24.835Z,21.87
2019-04-21T05:23:41.336Z,19.90
2019-04-21T05:26:01.587Z,24.27
2019-04-21T05:28:29.891Z,19.90
2019-04-21T05:31:19.791Z,22.10
2019-04-21T05:33:49.475Z,21.70
2019-04-21T05:36:27.864Z,23.00
2019-04-21T05:39:06.873Z,22.63
2019-04-21T05:41:26.617Z,24.33
2019-04-21T05:44:03.781Z,23.37
2019-04-21T05:46:32.254Z,24.00
2019-04-21T05:49:05.846Z,28.40
2019-04-21T05:51:30.613Z,26.70
2019-04-21T05:54:14.975Z,23.83
2019-04-21T05:56:36.530Z,26.13
2019-04-21T05:59:02.074Z,25.43
2019-04-21T06:01:46.751Z,27.03
2019-04-21T06:04:11.399Z,22.40
2019-04-21T06:06:37.546Z,24.07
2019-04-21T06:09:00.908Z,27.30
2019-04-21T06:11:30.929Z,22.60
2019-04-21T06:14:14.019Z,17.93
2019-04-21T06:16:30.368Z,20.87
2019-04-21T06:18:58.631Z,30.73
2019-04-21T06:21:27.554Z,23.13
2019-04-21T06:24:10.167Z,35.77
2019-04-21T06:28:51.810Z,47.10
2019-04-21T06:31:40.819Z,47.03
2019-04-21T06:33:48.881Z,47.23
2019-04-21T06:36:41.417Z,38.83
2019-04-21T06:44:14.239Z,26.30
2019-04-21T06:46:30.930Z,19.77
2019-04-21T06:51:27.923Z,16.90
2019-04-21T06:53:59.733Z,20.23
2019-04-21T06:56:23.816Z,20.93
2019-04-21T06:58:51.430Z,22.43
2019-04-21T07:01:26.533Z,22.60
2019-04-21T07:04:01.676Z,19.63
2019-04-21T07:06:13.165Z,23.97
2019-04-21T07:08:54.379Z,20.40
2019-04-21T07:11:08.710Z,17.00
2019-04-21T07:13:41.511Z,18.20
2019-04-21T07:16:12.020Z,15.63
2019-04-21T07:18:41.157Z,16.57
2019-04-21T07:21:08.221Z,18.23
2019-04-21T07:23:39.835Z,22.03
2019-04-21T07:26:05.686Z,22.43
2019-04-21T07:28:40.272Z,20.93
2019-04-21T07:31:15.503Z,22.00
2019-04-21T07:36:07.942Z,25.97
2019-04-21T07:38:27.231Z,16.60
2019-04-21T07:40:54.902Z,18.70
2019-04-21T07:43:24.648Z,23.40
2019-04-21T07:45:56.913Z,22.07
2019-04-21T07:48:31.308Z,19.00
2019-04-21T07:53:59.648Z,16.20
2019-04-21T07:56:06.491Z,19.37
2019-04-21T07:58:53.446Z,18.60
2019-04-21T08:01:18.263Z,27.30
2019-04-21T08:03:46.133Z,15.90
2019-04-21T08:06:18.872Z,19.23
2019-04-21T08:08:45.100Z,16.23
2019-04-21T08:11:10.961Z,18.07
2019-04-21T08:13:48.818Z,23.07
2019-04-21T08:16:12.787Z,16.43
2019-04-21T08:18:39.368Z,16.47
2019-04-21T08:21:08.600Z,18.97
2019-04-21T08:23:37.091Z,17.20
2019-04-21T08:26:12.144Z,19.37
2019-04-21T08:31:04.530Z,19.83
2019-04-21T08:33:38.707Z,18.40
2019-04-21T08:38:27.691Z,15.90
2019-04-21T08:41:01.952Z,17.80
2019-04-21T08:43:39.988Z,18.27
2019-04-21T08:46:13.842Z,18.90
2019-04-21T08:48:22.823Z,16.93
2019-04-21T08:51:12.928Z,19.73
2019-04-21T08:53:27.375Z,13.47
2019-04-21T08:56:16.453Z,18.10
2019-04-21T08:59:12.628Z,13.67
2019-04-21T09:02:01.379Z,13.80
2019-04-21T09:04:29.074Z,16.07
2019-04-21T09:07:05.160Z,13.80
2019-04-21T09:09:29.131Z,12.33
2019-04-21T09:12:01.615Z,15.50
2019-04-21T09:14:25.703Z,12.27
2019-04-21T09:16:53.655Z,14.73
2019-04-21T09:19:35.278Z,13.23
2019-04-21T09:21:57.473Z,14.07
2019-04-21T09:24:24.622Z,12.40
2019-04-21T09:26:49.253Z,13.53
2019-04-21T09:29:10.905Z,12.70
2019-04-21T09:31:36.488Z,11.20
2019-04-21T09:34:03.175Z,13.60
2019-04-21T09:36:36.929Z,12.97
2019-04-21T09:39:05.548Z,16.50
2019-04-21T09:41:28.311Z,13.63
2019-04-21T09:43:57.529Z,19.07
2019-04-21T09:46:25.464Z,14.67
2019-04-21T09:48:59.244Z,18.53
2019-04-21T09:51:21.656Z,20.73
2019-04-21T09:53:58.765Z,17.23
2019-04-21T09:56:30.492Z,15.03
2019-04-21T09:58:51.704Z,17.27
2019-04-21T10:01:22.615Z,13.73
2019-04-21T10:03:48.703Z,14.77
2019-04-21T10:06:16.107Z,16.00
2019-04-21T10:08:43.046Z,14.23
2019-04-21T10:11:10.022Z,12.07
2019-04-21T10:13:37.409Z,13.13
2019-04-21T10:16:23.884Z,16.50
2019-04-21T10:18:52.320Z,14.37
2019-04-21T10:21:19.826Z,12.63
2019-04-21T10:23:47.960Z,12.80
2019-04-21T10:26:15.012Z,15.27
2019-04-21T10:28:43.315Z,13.63
2019-04-21T10:31:11.025Z,15.90
2019-04-21T10:33:38.131Z,16.20
2019-04-21T10:36:05.163Z,14.20
2019-04-21T10:38:38.940Z,16.70
2019-04-21T10:41:01.539Z,12.90
2019-04-21T10:43:29.254Z,12.77
2019-04-21T10:45:57.083Z,20.53
2019-04-21T10:48:25.201Z,15.13
2019-04-21T10:50:52.784Z,11.83
2019-04-21T10:53:23.055Z,13.63
2019-04-21T10:56:06.110Z,12.80
2019-04-21T10:58:22.600Z,12.33
2019-04-21T11:00:52.800Z,12.20
2019-04-21T11:03:46.660Z,12.30
2019-04-21T11:06:16.894Z,10.97
2019-04-21T11:08:47.598Z,12.13
2019-04-21T11:11:13.860Z,12.27
2019-04-21T11:13:42.180Z,14.10
2019-04-21T11:16:09.157Z,13.43
2019-04-21T11:18:36.164Z,17.77
2019-04-21T11:21:04.834Z,14.07
2019-04-21T11:23:33.105Z,15.37
2019-04-21T11:26:00.272Z,15.40
2019-04-21T11:28:27.361Z,13.93
2019-04-21T11:30:54.905Z,18.07
2019-04-21T11:33:22.832Z,13.70
2019-04-21T11:35:51.223Z,13.27
2019-04-21T11:38:26.628Z,15.30
2019-04-21T11:40:51.778Z,15.07
2019-04-21T11:43:19.760Z,15.37
2019-04-21T11:45:46.798Z,17.63
2019-04-21T11:48:24.212Z,12.90
2019-04-21T11:50:51.234Z,11.50
2019-04-21T11:53:18.931Z,14.63
2019-04-21T11:55:48.537Z,10.80
2019-04-21T11:58:15.981Z,13.10
2019-04-21T12:00:45.385Z,11.33
2019-04-21T12:03:15.232Z,11.53
2019-04-21T12:05:41.501Z,11.70
2019-04-21T12:08:21.343Z,9.70
2019-04-21T12:10:37.649Z,9.40
2019-04-21T12:13:07.378Z,11.30
2019-04-21T12:15:34.660Z,10.60
2019-04-21T12:18:02.170Z,9.03
2019-04-21T12:20:30.323Z,15.33
2019-04-21T12:22:57.534Z,8.13
2019-04-21T12:25:27.231Z,15.57
2019-04-21T12:27:54.399Z,11.83
2019-04-21T12:30:21.938Z,9.87
2019-04-21T12:32:53.897Z,9.70
2019-04-21T12:35:21.857Z,10.67
2019-04-21T12:37:49.331Z,8.60
2019-04-21T12:40:16.970Z,11.97
2019-04-21T12:42:45.456Z,11.63
2019-04-21T12:45:13.098Z,9.33
2019-04-21T12:47:41.806Z,14.80
2019-04-21T12:50:11.102Z,8.30
2019-04-21T12:52:38.154Z,10.10
2019-04-21T12:55:05.850Z,7.40
2019-04-21T12:57:33.323Z,8.50
2019-04-21T13:00:02.875Z,9.47
2019-04-21T13:02:30.028Z,8.57
2019-04-21T13:04:57.789Z,11.30
2019-04-21T13:07:25.760Z,10.03
2019-04-21T13:09:54.510Z,10.30
2019-04-21T13:12:22.875Z,9.37
2019-04-21T13:14:50.124Z,12.23
2019-04-21T13:17:17.331Z,11.63
2019-04-21T13:19:45.315Z,13.03
2019-04-21T13:22:12.421Z,12.40
2019-04-21T13:24:39.928Z,11.87
2019-04-21T13:27:08.875Z,7.57
2019-04-21T13:29:36.452Z,9.53
2019-04-21T13:32:05.169Z,8.30
2019-04-21T13:34:33.764Z,8.63
2019-04-21T13:37:01.560Z,9.70
2019-04-21T13:40:06.553Z,12.40
2019-04-21T13:42:13.432Z,8.00
2019-04-21T13:44:34.949Z,8.43
2019-04-21T13:47:02.755Z,9.20
2019-04-21T13:49:29.873Z,11.47
2019-04-21T13:51:57.013Z,11.80
2019-04-21T13:54:25.458Z,8.73
2019-04-21T13:56:52.542Z,8.70
2019-04-21T13:59:20.098Z,7.17
2019-04-21T14:01:47.827Z,9.00
2019-04-21T14:04:15.844Z,13.23
2019-04-21T14:06:44.562Z,7.60
2019-04-21T14:09:11.728Z,10.13
2019-04-21T14:11:38.715Z,9.83
2019-04-21T14:14:06.122Z,7.97
2019-04-21T14:16:34.033Z,8.83
2019-04-21T14:19:01.776Z,9.80
2019-04-21T14:21:29.392Z,10.17
2019-04-21T14:23:59.100Z,7.90
2019-04-21T14:26:26.713Z,7.93
2019-04-21T14:28:54.645Z,7.13
2019-04-21T14:31:22.231Z,8.00
2019-04-21T14:33:50.045Z,18.87
2019-04-21T14:36:17.179Z,8.97
2019-04-21T14:38:44.727Z,7.20
2019-04-21T14:41:12.444Z,11.17
2019-04-21T14:43:39.602Z,8.07
2019-04-21T14:46:13.203Z,9.20
2019-04-21T14:49:05.644Z,12.60
2019-04-21T14:51:49.208Z,7.93
2019-04-21T14:54:42.715Z,6.20
2019-04-21T14:57:11.356Z,7.77
2019-04-21T14:59:39.197Z,11.40
2019-04-21T15:02:07.613Z,5.30
2019-04-21T15:04:35.630Z,7.37
2019-04-21T15:07:03.404Z,7.67
2019-04-21T15:09:31.533Z,7.53
2019-04-21T15:12:00.091Z,7.90
2019-04-21T15:14:27.319Z,9.40
2019-04-21T15:16:54.556Z,7.67
2019-04-21T15:19:22.446Z,8.87
2019-04-21T15:21:50.219Z,8.53
2019-04-21T15:24:18.347Z,7.73
2019-04-21T15:26:46.449Z,7.17
2019-04-21T15:29:15.000Z,8.57
2019-04-21T15:31:44.654Z,6.70
2019-04-21T15:34:11.299Z,7.70
2019-04-21T15:36:39.986Z,6.70
2019-04-21T15:39:07.963Z,9.63
2019-04-21T15:41:34.974Z,8.43
2019-04-21T15:44:04.081Z,7.33
2019-04-21T15:46:33.896Z,9.43
2019-04-21T15:49:00.591Z,7.13
2019-04-21T15:51:28.081Z,7.00
2019-04-21T15:53:57.578Z,8.10
2019-04-21T15:56:36.942Z,8.43
2019-04-21T15:59:32.646Z,17.13
2019-04-21T16:02:19.376Z,7.80
2019-04-21T16:04:46.609Z,12.20
2019-04-21T16:07:14.074Z,7.73
2019-04-21T16:09:41.793Z,6.43
2019-04-21T16:12:09.681Z,6.53
2019-04-21T16:14:36.882Z,6.80
2019-04-21T16:17:05.370Z,9.47
2019-04-21T16:19:33.343Z,9.83
2019-04-21T16:22:03.161Z,9.60
2019-04-21T16:24:30.902Z,8.70
2019-04-21T16:27:01.730Z,7.20
2019-04-21T16:29:27.251Z,12.33
2019-04-21T16:31:55.234Z,10.30
2019-04-21T16:34:35.390Z,7.70
2019-04-21T16:36:51.807Z,8.93
2019-04-21T16:39:19.688Z,8.80
2019-04-21T16:41:46.828Z,7.30
2019-04-21T16:44:13.802Z,7.70
2019-04-21T16:46:41.287Z,7.93
2019-04-21T16:49:09.651Z,7.90
2019-04-21T16:51:37.986Z,8.13
2019-04-21T16:54:24.317Z,10.23
2019-04-21T16:57:03.726Z,7.73
2019-04-21T16:59:35.065Z,9.00
2019-04-21T17:02:02.903Z,7.10
2019-04-21T17:04:30.697Z,7.17
2019-04-21T17:06:58.944Z,6.80
2019-04-21T17:09:26.526Z,7.97
2019-04-21T17:11:58.063Z,9.23
2019-04-21T17:14:37.177Z,12.13
2019-04-21T17:17:15.836Z,16.83
2019-04-21T17:19:27.787Z,6.23
2019-04-21T17:21:49.893Z,8.00
2019-04-21T17:24:16.989Z,10.50
2019-04-21T17:26:44.723Z,7.10
2019-04-21T17:29:14.549Z,7.67
2019-04-21T17:31:41.740Z,8.23
2019-04-21T17:34:16.241Z,7.10
2019-04-21T17:36:41.569Z,9.23
2019-04-21T17:39:09.025Z,10.90
2019-04-21T17:41:42.463Z,9.50
2019-04-21T17:44:06.553Z,8.10
2019-04-21T17:46:44.100Z,11.00
2019-04-21T17:49:03.222Z,9.23
2019-04-21T17:51:49.388Z,8.37
2019-04-21T17:54:27.616Z,8.93
2019-04-21T17:57:12.049Z,10.80
2019-04-21T17:59:52.307Z,8.07
2019-04-21T18:02:03.700Z,9.70
2019-04-21T18:04:34.842Z,6.70
2019-04-21T18:07:26.190Z,9.57
2019-04-21T18:09:59.098Z,8.23
2019-04-21T18:12:16.623Z,9.93
2019-04-21T18:14:32.926Z,9.30
2019-04-21T18:17:00.362Z,9.50
2019-04-21T18:19:30.991Z,8.10
2019-04-21T18:22:23.976Z,12.30
2019-04-21T18:25:03.017Z,9.00
2019-04-21T18:27:21.971Z,9.70
2019-04-21T18:29:52.732Z,13.50
2019-04-21T18:32:26.394Z,9.63
2019-04-21T18:35:14.203Z,8.93
2019-04-21T18:38:15.395Z,11.67
2019-04-21T18:40:38.505Z,11.83
2019-04-21T18:46:13.500Z,11.10
2019-04-21T18:48:40.951Z,10.90
2019-04-21T18:51:27.661Z,10.50
2019-04-21T18:54:22.670Z,9.43
2019-04-21T18:56:31.530Z,13.53
2019-04-21T18:58:58.737Z,9.27
2019-04-21T19:01:28.270Z,10.37
2019-04-21T19:03:56.149Z,11.63
2019-04-21T19:06:43.901Z,12.67
2019-04-21T19:09:11.594Z,9.80
2019-04-21T19:11:32.922Z,10.73
2019-04-21T19:14:29.041Z,9.33
2019-04-21T19:16:47.577Z,9.87
2019-04-21T19:19:34.171Z,11.57
2019-04-21T19:21:34.080Z,12.13
2019-04-21T19:24:20.263Z,12.40
2019-04-21T19:26:51.071Z,17.77
2019-04-21T19:29:16.319Z,19.10
2019-04-21T19:31:39.759Z,24.47
2019-04-21T19:33:55.147Z,24.17
2019-04-21T19:36:17.214Z,30.10
2019-04-21T19:38:55.920Z,27.20
2019-04-21T19:41:28.175Z,31.60
2019-04-21T19:44:02.763Z,28.73
2019-04-21T19:46:28.120Z,28.10
2019-04-21T19:49:07.245Z,27.23
2019-04-21T19:51:23.201Z,18.83
2019-04-21T19:53:52.791Z,21.97
2019-04-21T19:58:47.490Z,25.00
2019-04-21T20:01:17.265Z,18.83
2019-04-21T20:03:48.663Z,18.47
2019-04-21T20:06:28.607Z,22.20
2019-04-21T20:08:59.189Z,20.70
2019-04-21T20:11:30.585Z,21.60
2019-04-21T20:14:27.481Z,19.47
2019-04-21T20:16:33.919Z,23.60
2019-04-21T20:18:44.663Z,18.70
2019-04-21T20:21:08.024Z,22.40
2019-04-21T20:23:38.990Z,22.00
2019-04-21T20:26:08.112Z,24.90
2019-04-21T20:28:45.524Z,26.00
2019-04-21T20:31:18.893Z,32.33
2019-04-21T20:33:52.691Z,28.30
2019-04-21T20:36:21.158Z,34.93
2019-04-21T20:38:40.388Z,28.77
2019-04-21T20:41:10.953Z,28.23
2019-04-21T20:43:45.857Z,28.27
2019-04-21T20:46:12.256Z,36.90
2019-04-21T20:48:35.618Z,24.03
2019-04-21T20:51:14.484Z,27.40
2019-04-21T20:53:37.657Z,26.73
2019-04-21T20:56:02.421Z,26.50
2019-04-21T20:58:37.266Z,29.90
2019-04-21T21:01:32.977Z,24.37
2019-04-21T21:03:35.083Z,27.50
2019-04-21T21:05:58.363Z,29.47
2019-04-21T21:08:35.849Z,27.27
2019-04-21T21:10:57.505Z,31.60
2019-04-21T21:13:39.481Z,30.80
2019-04-21T21:16:11.898Z,33.63
2019-04-21T21:18:52.287Z,34.10
2019-04-21T21:20:59.097Z,34.27
2019-04-21T21:23:26.027Z,36.07
2019-04-21T21:25:55.464Z,35.63
2019-04-21T21:28:22.606Z,31.77
2019-04-21T21:30:53.061Z,31.20
2019-04-21T21:33:25.694Z,26.70
2019-04-21T21:35:49.459Z,29.17
2019-04-21T21:38:21.943Z,29.40
2019-04-21T21:40:45.521Z,25.07
2019-04-21T21:43:08.139Z,26.80
2019-04-21T21:45:39.478Z,23.17
2019-04-21T21:48:18.761Z,24.40
2019-04-21T21:50:42.367Z,24.83
2019-04-21T21:53:04.210Z,28.53
2019-04-21T21:55:27.680Z,23.20
2019-04-21T21:57:58.798Z,27.47
2019-04-21T22:00:26.248Z,26.13
2019-04-21T22:02:56.871Z,27.60
2019-04-21T22:05:26.012Z,24.37
2019-04-21T22:07:52.235Z,25.73
2019-04-21T22:10:20.142Z,23.97
2019-04-21T22:12:55.428Z,32.40
2019-04-21T22:15:22.235Z,29.60
2019-04-21T22:18:07.551Z,26.57
2019-04-21T22:20:33.335Z,26.43
2019-04-21T22:22:54.250Z,23.67
2019-04-21T22:25:20.737Z,21.60
2019-04-21T22:27:43.457Z,26.60
2019-04-21T22:30:14.669Z,20.23
2019-04-21T22:32:50.246Z,22.10
2019-04-21T22:35:22.331Z,21.07
2019-04-21T22:37:51.126Z,24.47
2019-04-21T22:40:21.918Z,24.80
2019-04-21T22:42:47.436Z,20.87
2019-04-21T22:45:09.186Z,23.33
2019-04-21T22:47:39.533Z,23.00
2019-04-21T22:50:08.539Z,19.10
2019-04-21T22:52:35.680Z,29.67
2019-04-21T22:55:08.311Z,22.57
2019-04-21T22:57:36.625Z,25.80
2019-04-21T23:00:03.906Z,26.00
2019-04-21T23:02:33.312Z,27.67
2019-04-21T23:05:00.546Z,25.33
2019-04-21T23:07:28.208Z,25.03
2019-04-21T23:09:55.531Z,16.97
2019-04-21T23:12:28.251Z,24.17
2019-04-21T23:14:58.524Z,19.90
2019-04-21T23:17:37.836Z,20.30
2019-04-21T23:20:13.269Z,22.70
2019-04-21T23:22:49.369Z,21.43
2019-04-21T23:25:09.419Z,22.40
2019-04-21T23:27:33.376Z,18.67
2019-04-21T23:30:06.397Z,20.87
2019-04-21T23:32:29.493Z,21.83
2019-04-21T23:34:44.172Z,18.37
2019-04-21T23:37:16.634Z,22.23
2019-04-21T23:39:41.545Z,19.93
2019-04-21T23:42:09.173Z,23.57
2019-04-21T23:44:41.519Z,24.87
2019-04-21T23:47:08.595Z,18.60
2019-04-21T23:49:46.206Z,17.57
2019-04-21T23:52:08.156Z,24.23
2019-04-21T23:54:33.405Z,17.80
2019-04-21T23:57:02.891Z,17.00
2019-04-21T23:59:32.842Z,22.00
